Time;durP1;ratioP1;P1;durP2;ratioP2;P2;SDS_P1;SDS_P2;PMS_P1;PMS_P2;Temp;Humidity;BMP_temperature;BMP_pressure;BME280_temperature;BME280_humidity;BME280_pressure;Samples;Min_cycle;Max_cycle;Signal;HPM_P1;HPM_P2
2023/04/01 00:00:16;;;;;;;49.08;10.70;;;13.00;99.90;;;;;;5052919;28;20033;-63
2023/04/01 00:02:42;;;;;;;52.25;11.32;;;12.90;99.90;;;;;;5053336;28;20029;-63
2023/04/01 00:05:10;;;;;;;48.10;11.23;;;12.90;99.90;;;;;;5052300;28;20045;-63
2023/04/01 00:07:40;;;;;;;51.40;11.65;;;12.90;99.90;;;;;;5052930;28;20108;-63
2023/04/01 00:10:10;;;;;;;51.15;10.75;;;12.90;99.90;;;;;;5052569;28;20036;-62
2023/04/01 00:12:37;;;;;;;53.60;11.02;;;13.00;99.90;;;;;;5052376;28;20048;-63
2023/04/01 00:15:09;;;;;;;47.88;10.25;;;13.00;99.90;;;;;;5052286;28;20025;-63
2023/04/01 00:17:35;;;;;;;43.05;9.65;;;13.00;99.90;;;;;;5052716;28;20031;-63
2023/04/01 00:20:02;;;;;;;57.08;11.45;;;13.00;99.90;;;;;;5052512;28;20017;-63
2023/04/01 00:22:28;;;;;;;49.10;10.00;;;13.00;99.90;;;;;;5052699;28;20086;-63
2023/04/01 00:24:54;;;;;;;40.63;10.20;;;13.00;99.90;;;;;;5052491;28;20108;-63
2023/04/01 00:27:20;;;;;;;40.22;9.85;;;13.00;99.90;;;;;;5052279;28;20183;-63
2023/04/01 00:29:47;;;;;;;49.50;9.95;;;13.00;99.90;;;;;;5052085;28;20525;-61
2023/04/01 00:32:13;;;;;;;46.45;10.30;;;12.90;99.90;;;;;;5052391;28;20021;-63
2023/04/01 00:34:40;;;;;;;34.85;8.40;;;13.00;99.90;;;;;;5051520;28;20028;-62
2023/04/01 00:37:07;;;;;;;40.80;8.55;;;12.90;99.90;;;;;;5051559;28;20033;-63
2023/04/01 00:39:34;;;;;;;39.90;9.00;;;12.90;99.90;;;;;;5051308;28;20028;-63
2023/04/01 00:42:02;;;;;;;39.58;9.18;;;12.80;99.90;;;;;;5052211;28;20043;-63
2023/04/01 00:44:34;;;;;;;41.53;10.10;;;12.80;99.90;;;;;;5052134;28;20074;-63
2023/04/01 00:47:00;;;;;;;49.38;10.30;;;12.80;99.90;;;;;;5052137;28;20028;-63
2023/04/01 00:49:40;;;;;;;44.97;9.52;;;12.80;99.90;;;;;;5052156;28;20525;-63
2023/04/01 00:52:08;;;;;;;41.55;9.60;;;12.80;99.90;;;;;;5052304;28;20392;-63
2023/04/01 00:54:35;;;;;;;45.80;10.50;;;12.80;99.90;;;;;;5051653;28;20044;-63
2023/04/01 00:57:07;;;;;;;43.13;10.23;;;12.70;99.90;;;;;;5052189;28;20493;-63
2023/04/01 00:59:39;;;;;;;45.22;10.32;;;12.70;99.90;;;;;;5052298;28;20036;-63
2023/04/01 01:02:08;;;;;;;48.97;10.18;;;12.80;99.90;;;;;;5052163;28;20035;-63
2023/04/01 01:04:35;;;;;;;42.95;9.95;;;12.70;99.90;;;;;;5051577;28;20068;-63
2023/04/01 01:07:04;;;;;;;38.13;8.90;;;12.70;99.90;;;;;;5052400;28;20028;-63
2023/04/01 01:09:40;;;;;;;40.55;9.35;;;12.70;99.90;;;;;;5051444;28;20434;-63
2023/04/01 01:12:14;;;;;;;38.47;8.63;;;12.70;99.90;;;;;;5051906;28;20029;-63
2023/04/01 01:14:45;;;;;;;36.22;9.00;;;12.70;99.90;;;;;;5051931;28;20028;-63
2023/04/01 01:17:14;;;;;;;41.38;8.95;;;12.70;99.90;;;;;;5052054;28;20037;-63
2023/04/01 01:19:56;;;;;;;40.78;9.30;;;12.60;99.90;;;;;;5052253;28;20025;-63
2023/04/01 01:23:06;;;;;;;41.60;9.27;;;12.60;99.90;;;;;;5051729;28;20035;-63
2023/04/01 01:25:31;;;;;;;42.03;9.70;;;12.60;99.90;;;;;;5030317;28;20042;-63
2023/04/01 01:28:17;;;;;;;44.92;9.23;;;12.60;99.90;;;;;;5033584;28;20048;-63
2023/04/01 01:31:03;;;;;;;45.15;10.30;;;12.60;99.90;;;;;;5033765;28;20482;-62
2023/04/01 01:33:31;;;;;;;43.15;10.15;;;12.60;99.90;;;;;;5033479;28;20046;-63
2023/04/01 01:36:01;;;;;;;43.08;10.32;;;12.60;99.90;;;;;;5033499;28;20032;-63
2023/04/01 01:38:31;;;;;;;46.50;9.80;;;12.60;99.90;;;;;;5033151;28;20025;-63
2023/04/01 01:40:58;;;;;;;45.13;9.10;;;12.50;99.90;;;;;;5033590;28;20103;-62
2023/04/01 01:43:35;;;;;;;39.33;9.50;;;12.50;99.90;;;;;;5033561;28;20109;-63
2023/04/01 01:46:06;;;;;;;47.95;10.35;;;12.60;99.90;;;;;;5033449;28;20041;-63
2023/04/01 01:48:32;;;;;;;44.42;9.63;;;12.60;99.90;;;;;;5033530;28;20061;-63
2023/04/01 01:50:59;;;;;;;47.70;10.05;;;12.60;99.90;;;;;;5016822;28;20040;-63
2023/04/01 01:53:25;;;;;;;43.05;9.75;;;12.70;99.90;;;;;;5032773;28;20104;-63
2023/04/01 01:55:51;;;;;;;46.03;10.52;;;12.70;99.90;;;;;;5033282;28;20104;-63
2023/04/01 01:58:40;;;;;;;46.53;10.82;;;12.70;99.90;;;;;;5034502;28;20107;-63
2023/04/01 02:01:08;;;;;;;47.08;10.93;;;12.70;99.90;;;;;;5055217;28;20429;-63
2023/04/01 02:03:37;;;;;;;43.67;10.13;;;12.70;99.90;;;;;;5055012;28;20032;-62
2023/04/01 02:06:06;;;;;;;43.75;9.30;;;12.70;99.90;;;;;;5055489;28;20029;-63
2023/04/01 02:08:47;;;;;;;45.58;9.82;;;12.70;99.90;;;;;;5054515;28;20024;-63
2023/04/01 02:11:18;;;;;;;45.10;9.93;;;12.80;99.90;;;;;;5054828;28;20040;-63
2023/04/01 02:13:53;;;;;;;42.70;10.10;;;12.70;99.90;;;;;;5055026;28;20045;-63
2023/04/01 02:16:50;;;;;;;36.95;9.07;;;12.60;99.90;;;;;;5055163;28;20036;-63
2023/04/01 02:19:22;;;;;;;38.72;8.52;;;12.60;99.90;;;;;;5032771;28;20109;-63
2023/04/01 02:21:54;;;;;;;38.20;8.57;;;12.60;99.90;;;;;;5032533;28;20384;-63
2023/04/01 02:24:22;;;;;;;33.67;7.78;;;12.60;99.90;;;;;;5032784;28;20126;-63
2023/04/01 02:26:51;;;;;;;30.55;7.25;;;12.50;99.90;;;;;;5032641;28;20029;-63
2023/04/01 02:29:19;;;;;;;34.63;7.40;;;12.50;99.90;;;;;;5032376;28;20037;-63
2023/04/01 02:31:45;;;;;;;35.63;8.07;;;12.50;99.90;;;;;;5032975;28;20517;-63
2023/04/01 02:34:11;;;;;;;35.17;8.00;;;12.50;99.90;;;;;;5032483;28;20096;-63
2023/04/01 02:36:38;;;;;;;34.05;6.70;;;12.50;99.90;;;;;;5031524;28;20044;-62
2023/04/01 02:39:05;;;;;;;32.42;7.28;;;12.50;99.90;;;;;;5032787;28;20033;-64
2023/04/01 02:41:31;;;;;;;33.08;7.28;;;12.50;99.90;;;;;;5032377;28;20056;-63
2023/04/01 02:43:58;;;;;;;31.02;6.95;;;12.50;99.90;;;;;;5032380;28;20497;-63
2023/04/01 02:46:24;;;;;;;26.58;6.82;;;12.50;99.90;;;;;;5032197;28;20037;-63
2023/04/01 02:48:50;;;;;;;36.05;7.78;;;12.50;99.90;;;;;;5032264;28;20437;-63
2023/04/01 02:51:15;;;;;;;34.92;7.68;;;12.40;99.90;;;;;;5031730;28;20025;-63
2023/04/01 02:53:41;;;;;;;31.50;7.82;;;12.50;99.90;;;;;;5032546;28;20105;-63
2023/04/01 02:56:07;;;;;;;35.95;7.95;;;12.50;99.90;;;;;;5044668;28;20444;-63
2023/04/01 02:58:32;;;;;;;35.20;8.27;;;12.50;99.90;;;;;;5052818;28;20025;-63
2023/04/01 03:00:58;;;;;;;35.38;8.32;;;12.50;99.90;;;;;;5054213;28;20029;-62
2023/04/01 03:03:25;;;;;;;35.55;8.18;;;12.40;99.90;;;;;;5053975;28;20036;-62
2023/04/01 03:05:51;;;;;;;40.13;8.38;;;12.40;99.90;;;;;;5053834;28;20091;-63
2023/04/01 03:08:16;;;;;;;41.63;7.97;;;12.40;99.90;;;;;;5054001;28;20025;-63
2023/04/01 03:10:42;;;;;;;40.22;8.38;;;12.50;99.90;;;;;;5053742;28;20032;-63
2023/04/01 03:13:08;;;;;;;40.30;9.20;;;12.50;99.90;;;;;;5054016;28;20021;-63
2023/04/01 03:15:33;;;;;;;36.50;8.50;;;12.40;99.90;;;;;;5053066;28;20058;-63
2023/04/01 03:17:59;;;;;;;40.30;8.35;;;12.40;99.90;;;;;;5053913;28;20021;-63
2023/04/01 03:20:25;;;;;;;41.63;9.20;;;12.50;99.90;;;;;;5053239;28;20447;-63
2023/04/01 03:22:50;;;;;;;39.38;8.25;;;12.50;99.90;;;;;;5053773;28;20050;-63
2023/04/01 03:25:17;;;;;;;38.42;9.35;;;12.60;99.90;;;;;;5053586;28;20114;-63
2023/04/01 03:27:43;;;;;;;34.15;7.60;;;12.60;99.90;;;;;;5053681;28;20013;-63
2023/04/01 03:30:09;;;;;;;30.42;7.10;;;12.40;99.90;;;;;;5053921;28;20529;-63
2023/04/01 03:32:35;;;;;;;31.27;6.78;;;12.10;99.90;;;;;;5053562;28;20547;-63
2023/04/01 03:35:00;;;;;;;33.22;7.60;;;12.00;99.90;;;;;;5053052;28;20033;-63
2023/04/01 03:37:26;;;;;;;36.00;7.93;;;12.10;99.90;;;;;;5053443;28;20032;-63
2023/04/01 03:39:52;;;;;;;37.63;8.75;;;12.00;99.90;;;;;;5053422;28;20087;-63
2023/04/01 03:42:18;;;;;;;42.45;8.52;;;12.00;99.90;;;;;;5053387;28;20032;-62
2023/04/01 03:44:44;;;;;;;41.90;8.43;;;12.10;99.90;;;;;;5053283;28;20041;-63
2023/04/01 03:47:10;;;;;;;41.00;9.10;;;12.10;99.90;;;;;;5053533;28;20104;-62
2023/04/01 03:49:36;;;;;;;39.42;8.68;;;12.10;99.90;;;;;;5051855;28;20033;-63
2023/04/01 03:52:01;;;;;;;44.55;8.70;;;12.20;99.90;;;;;;5052969;28;20031;-63
2023/04/01 03:54:27;;;;;;;34.60;8.77;;;12.20;99.90;;;;;;5053444;28;20060;-63
2023/04/01 03:56:53;;;;;;;46.85;8.82;;;12.20;99.90;;;;;;5053282;28;20096;-62
2023/04/01 03:59:19;;;;;;;40.47;8.98;;;12.20;99.90;;;;;;5052893;28;20040;-62
2023/04/01 04:01:47;;;;;;;36.47;8.35;;;12.20;99.90;;;;;;5052950;28;20025;-63
2023/04/01 04:04:13;;;;;;;41.28;8.85;;;12.20;99.90;;;;;;5052317;28;20051;-63
2023/04/01 04:06:39;;;;;;;45.03;9.55;;;12.20;99.90;;;;;;5052742;28;20465;-63
2023/04/01 04:09:04;;;;;;;39.25;9.50;;;12.20;99.90;;;;;;5052844;28;20082;-62
2023/04/01 04:11:32;;;;;;;41.72;8.77;;;12.20;99.90;;;;;;5033297;28;20108;-63
2023/04/01 04:13:58;;;;;;;40.60;10.70;;;12.20;99.90;;;;;;5032855;28;20022;-63
2023/04/01 04:16:24;;;;;;;43.08;9.38;;;12.20;99.90;;;;;;5033134;28;20476;-63
2023/04/01 04:18:50;;;;;;;40.88;9.15;;;12.20;99.90;;;;;;5032515;28;20026;-63
2023/04/01 04:21:16;;;;;;;42.90;9.73;;;12.30;99.90;;;;;;5032609;28;20390;-62
2023/04/01 04:23:42;;;;;;;44.08;9.95;;;12.30;99.90;;;;;;5032658;28;20030;-63
2023/04/01 04:26:11;;;;;;;45.00;9.80;;;12.40;99.90;;;;;;5032990;28;20048;-63
2023/04/01 04:28:38;;;;;;;38.10;8.70;;;12.30;99.90;;;;;;5032785;28;20029;-63
2023/04/01 04:31:05;;;;;;;36.55;8.73;;;12.30;99.90;;;;;;5032490;28;20552;-63
2023/04/01 04:33:31;;;;;;;32.47;7.57;;;12.30;99.90;;;;;;5032253;28;20391;-63
2023/04/01 04:35:58;;;;;;;37.25;7.82;;;12.20;99.90;;;;;;5032267;28;20116;-62
2023/04/01 04:38:25;;;;;;;33.38;7.57;;;12.20;99.90;;;;;;5032501;28;20087;-62
2023/04/01 04:40:51;;;;;;;33.70;8.82;;;12.10;99.90;;;;;;5032501;28;20024;-62
2023/04/01 04:43:18;;;;;;;35.33;8.32;;;12.10;99.90;;;;;;5032536;28;20033;-63
2023/04/01 04:45:44;;;;;;;33.08;7.55;;;12.10;99.90;;;;;;5032539;28;20618;-63
2023/04/01 04:48:18;;;;;;;38.17;8.15;;;12.00;99.90;;;;;;5032037;28;20437;-63
2023/04/01 04:50:44;;;;;;;37.05;8.27;;;12.10;99.90;;;;;;5032190;28;20099;-63
2023/04/01 04:53:12;;;;;;;40.75;8.68;;;12.10;99.90;;;;;;5032557;28;20032;-63
2023/04/01 04:55:42;;;;;;;44.00;9.30;;;12.10;99.90;;;;;;5032327;28;20026;-63
2023/04/01 04:58:07;;;;;;;41.55;8.93;;;12.10;99.90;;;;;;5032248;28;20033;-63
2023/04/01 05:00:33;;;;;;;45.33;9.73;;;12.10;99.90;;;;;;5031484;28;20535;-62
2023/04/01 05:02:59;;;;;;;36.38;8.23;;;12.10;99.90;;;;;;5032229;28;20386;-63
2023/04/01 05:05:24;;;;;;;32.47;7.43;;;12.00;99.90;;;;;;5043327;28;20440;-63
2023/04/01 05:07:50;;;;;;;30.67;6.72;;;11.80;99.90;;;;;;5052207;28;20123;-63
2023/04/01 05:10:16;;;;;;;35.20;7.63;;;11.70;99.90;;;;;;5051851;28;20087;-63
2023/04/01 05:12:41;;;;;;;32.28;7.18;;;11.70;99.90;;;;;;5051965;28;20055;-63
2023/04/01 05:15:08;;;;;;;33.97;7.15;;;11.70;99.90;;;;;;5051478;28;20119;-63
2023/04/01 05:17:34;;;;;;;37.05;8.25;;;11.70;99.90;;;;;;5051913;28;20037;-63
2023/04/01 05:20:00;;;;;;;40.60;9.45;;;11.60;99.90;;;;;;5051789;28;20031;-63
2023/04/01 05:22:27;;;;;;;43.05;8.82;;;11.70;99.90;;;;;;5052009;28;20555;-63
2023/04/01 05:24:52;;;;;;;43.05;10.02;;;11.80;99.90;;;;;;5051770;28;20103;-63
2023/04/01 05:27:18;;;;;;;52.88;10.60;;;11.80;99.90;;;;;;5052194;28;20024;-63
2023/04/01 05:29:44;;;;;;;40.97;9.63;;;11.80;99.90;;;;;;5051708;28;20520;-64
2023/04/01 05:32:10;;;;;;;40.95;8.60;;;11.90;99.90;;;;;;5051852;28;20482;-64
2023/04/01 05:34:35;;;;;;;45.60;9.18;;;12.00;99.90;;;;;;5051775;28;20037;-63
2023/04/01 05:37:01;;;;;;;45.00;9.38;;;12.00;99.90;;;;;;5051696;28;20208;-64
2023/04/01 05:39:27;;;;;;;48.65;9.38;;;12.00;99.90;;;;;;5051681;28;20032;-64
2023/04/01 05:41:52;;;;;;;48.08;10.27;;;12.00;99.90;;;;;;5051551;28;20063;-64
2023/04/01 05:44:18;;;;;;;46.38;9.77;;;12.00;99.90;;;;;;5050987;28;20041;-63
2023/04/01 05:46:44;;;;;;;48.70;10.52;;;12.10;99.90;;;;;;5051739;28;20013;-64
2023/04/01 05:49:09;;;;;;;43.85;9.60;;;12.10;99.90;;;;;;5051871;28;20087;-64
2023/04/01 05:51:35;;;;;;;47.88;11.18;;;12.10;99.90;;;;;;5051724;28;20021;-63
2023/04/01 05:54:01;;;;;;;47.85;9.95;;;12.10;99.90;;;;;;5051537;28;20037;-64
2023/04/01 05:56:26;;;;;;;47.25;10.85;;;12.10;99.90;;;;;;5051404;28;20098;-63
2023/04/01 05:58:54;;;;;;;48.00;10.32;;;12.20;99.90;;;;;;5051306;28;20059;-64
2023/04/01 06:01:19;;;;;;;46.72;10.10;;;12.10;99.90;;;;;;5051769;28;20029;-64
2023/04/01 06:03:45;;;;;;;47.00;11.25;;;12.20;99.90;;;;;;5051163;28;20052;-64
2023/04/01 06:06:19;;;;;;;43.42;9.90;;;12.20;99.90;;;;;;5051397;28;20516;-63
2023/04/01 06:08:45;;;;;;;;;;;12.20;99.90;;;;;;5052285;28;20511;-64
2023/04/01 06:11:51;;;;;;;42.67;9.15;;;12.20;99.90;;;;;;5051285;28;19904;-64
2023/04/01 06:14:39;;;;;;;42.85;10.00;;;12.20;99.90;;;;;;5054661;28;20063;-64
2023/04/01 06:17:17;;;;;;;45.13;9.60;;;12.20;99.90;;;;;;5054834;28;20078;-64
2023/04/01 06:19:57;;;;;;;45.40;10.25;;;12.20;99.90;;;;;;5054807;28;20538;-64
2023/04/01 06:22:38;;;;;;;41.30;9.45;;;12.10;99.90;;;;;;5055008;28;20031;-64
2023/04/01 06:25:23;;;;;;;47.83;9.85;;;12.10;99.90;;;;;;5054701;28;20083;-64
2023/04/01 06:28:22;;;;;;;45.40;9.82;;;12.20;99.90;;;;;;5054209;28;20381;-63
2023/04/01 06:31:17;;;;;;;53.17;10.50;;;12.20;99.90;;;;;;5054665;28;20020;-63
2023/04/01 06:34:10;;;;;;;43.60;9.55;;;12.30;99.90;;;;;;5054559;28;20162;-63
2023/04/01 06:37:25;;;;;;;37.60;8.80;;;12.30;99.90;;;;;;5054925;28;20069;-63
2023/04/01 06:40:09;;;;;;;37.33;9.43;;;12.40;99.90;;;;;;5051853;28;20029;-63
2023/04/01 06:42:45;;;;;;;;;;;12.40;99.90;;;;;;5054581;28;20035;-63
2023/04/01 06:45:31;;;;;;;44.45;8.82;;;12.40;99.90;;;;;;5054316;28;19935;-62
2023/04/01 06:48:06;;;;;;;40.03;9.85;;;12.40;99.90;;;;;;5054147;28;20102;-62
2023/04/01 06:50:41;;;;;;;46.60;9.65;;;12.40;99.90;;;;;;5054616;28;20048;-62
2023/04/01 06:53:12;;;;;;;45.65;9.73;;;12.40;99.90;;;;;;5054281;28;20025;-63
2023/04/01 06:56:12;;;;;;;47.30;9.57;;;12.50;99.90;;;;;;5054315;28;20374;-62
2023/04/01 06:58:41;;;;;;;41.97;10.02;;;12.50;99.90;;;;;;5049856;28;20040;-63
2023/04/01 07:01:14;;;;;;;43.50;9.32;;;12.50;99.90;;;;;;5054014;28;20037;-63
2023/04/01 07:03:58;;;;;;;40.00;9.70;;;12.50;99.90;;;;;;5053615;28;20095;-63
2023/04/01 07:06:39;;;;;;;41.33;9.70;;;12.60;99.90;;;;;;5052594;28;20497;-63
2023/04/01 07:09:18;;;;;;;43.40;9.65;;;12.60;99.90;;;;;;5053248;28;20028;-63
2023/04/01 07:11:45;;;;;;;32.83;8.40;;;12.60;99.90;;;;;;5033333;28;20025;-63
2023/04/01 07:14:25;;;;;;;37.70;8.50;;;12.60;99.90;;;;;;5034323;28;20096;-63
2023/04/01 07:17:04;;;;;;;35.17;8.32;;;12.70;99.90;;;;;;5034349;28;20036;-63
2023/04/01 07:19:47;;;;;;;36.75;8.57;;;12.80;99.90;;;;;;5033923;28;20017;-63
2023/04/01 07:22:24;;;;;;;36.65;7.90;;;12.80;99.90;;;;;;5033939;28;20060;-63
2023/04/01 07:24:53;;;;;;;39.30;8.07;;;12.90;99.90;;;;;;5033751;28;20037;-63
2023/04/01 07:27:18;;;;;;;33.55;8.93;;;12.90;99.90;;;;;;5033231;28;20029;-63
2023/04/01 07:29:45;;;;;;;29.52;7.25;;;12.80;99.90;;;;;;5033681;28;20505;-63
2023/04/01 07:32:25;;;;;;;32.83;8.00;;;12.90;99.90;;;;;;5034064;28;20542;-63
2023/04/01 07:35:10;;;;;;;32.85;7.20;;;12.90;99.90;;;;;;5033731;28;20115;-63
2023/04/01 07:38:06;;;;;;;39.75;8.55;;;13.00;99.90;;;;;;5033615;28;20419;-62
2023/04/01 07:40:50;;;;;;;34.67;7.75;;;13.10;99.90;;;;;;5033365;28;20569;-63
2023/04/01 07:43:41;;;;;;;35.08;8.23;;;13.10;99.90;;;;;;5033983;28;20026;-63
2023/04/01 07:46:26;;;;;;;32.03;7.85;;;13.10;99.90;;;;;;5030646;28;20057;-63
2023/04/01 07:48:58;;;;;;;39.15;7.93;;;13.10;99.90;;;;;;5033345;28;20151;-63
2023/04/01 07:51:28;;;;;;;36.20;8.63;;;13.20;99.90;;;;;;5033283;28;20048;-63
2023/04/01 07:54:00;;;;;;;36.47;8.73;;;13.20;99.90;;;;;;5031941;28;20032;-63
2023/04/01 07:56:31;;;;;;;45.28;9.48;;;13.30;99.90;;;;;;5032703;28;20033;-63
2023/04/01 07:59:18;;;;;;;41.45;8.90;;;13.40;99.90;;;;;;5033866;28;20101;-63
2023/04/01 08:01:52;;;;;;;39.95;8.52;;;13.50;99.90;;;;;;5033289;28;20037;-62
2023/04/01 08:04:49;;;;;;;39.17;9.05;;;13.50;99.90;;;;;;5035764;28;20505;-63
2023/04/01 08:07:23;;;;;;;42.33;8.48;;;13.60;99.90;;;;;;5052958;28;20104;-63
2023/04/01 08:09:55;;;;;;;39.50;7.97;;;13.60;99.90;;;;;;5052229;28;20033;-63
2023/04/01 08:12:23;;;;;;;30.25;8.18;;;13.60;99.90;;;;;;5053008;28;20401;-63
2023/04/01 08:15:14;;;;;;;33.28;7.47;;;13.50;99.90;;;;;;5053239;28;20017;-63
2023/04/01 08:17:58;;;;;;;35.17;7.75;;;13.50;99.90;;;;;;5053257;28;20447;-63
2023/04/01 08:20:55;;;;;;;30.25;7.55;;;13.40;99.90;;;;;;5052601;28;20021;-63
2023/04/01 08:23:33;;;;;;;34.92;8.30;;;13.40;99.90;;;;;;5048461;28;20448;-63
2023/04/01 08:26:27;;;;;;;32.88;7.30;;;13.50;99.90;;;;;;5052492;28;20037;-63
2023/04/01 08:29:02;;;;;;;33.00;7.53;;;13.30;99.90;;;;;;5052446;28;20033;-63
2023/04/01 08:31:34;;;;;;;39.72;8.77;;;13.40;99.90;;;;;;5052631;28;20271;-63
2023/04/01 08:34:01;;;;;;;36.58;8.55;;;13.30;99.90;;;;;;5052281;28;20113;-63
2023/04/01 08:36:32;;;;;;;31.25;7.07;;;13.40;99.90;;;;;;5051948;28;20036;-63
2023/04/01 08:39:09;;;;;;;36.20;8.15;;;13.30;99.90;;;;;;5052103;28;20440;-63
2023/04/01 08:41:34;;;;;;;31.13;6.65;;;13.30;99.90;;;;;;5052577;28;20037;-63
2023/04/01 08:44:30;;;;;;;31.38;7.53;;;13.40;99.90;;;;;;5051868;28;20017;-63
2023/04/01 08:47:34;;;;;;;20.63;4.32;;;13.50;99.90;;;;;;5052244;28;20036;-63
2023/04/01 08:50:21;;;;;;;17.42;3.92;;;13.50;99.90;;;;;;5051952;28;20064;-63
2023/04/01 08:52:47;;;;;;;17.00;4.88;;;13.50;99.90;;;;;;5052356;28;20098;-63
2023/04/01 08:55:32;;;;;;;16.45;4.07;;;13.50;99.90;;;;;;5052209;28;20021;-63
2023/04/01 08:58:04;;;;;;;22.15;5.63;;;13.60;99.90;;;;;;5052053;28;20041;-63
2023/04/01 09:00:32;;;;;;;23.67;5.40;;;13.50;99.90;;;;;;5051944;28;20436;-63
2023/04/01 09:03:16;;;;;;;22.13;4.85;;;13.60;99.90;;;;;;5052483;28;20099;-63
2023/04/01 09:06:08;;;;;;;24.17;6.35;;;13.70;99.90;;;;;;5051678;28;20048;-63
2023/04/01 09:08:51;;;;;;;22.98;5.47;;;14.00;99.90;;;;;;5051427;28;20027;-63
2023/04/01 09:11:19;;;;;;;24.80;5.72;;;14.00;99.90;;;;;;5051899;28;20021;-63
2023/04/01 09:14:04;;;;;;;21.58;4.97;;;13.90;99.90;;;;;;5052242;28;20495;-63
2023/04/01 09:16:41;;;;;;;22.38;4.80;;;13.90;99.90;;;;;;5051842;28;20048;-63
2023/04/01 09:19:07;;;;;;;24.77;5.72;;;14.00;99.90;;;;;;5051850;28;20033;-63
2023/04/01 09:21:59;;;;;;;25.42;5.53;;;14.10;99.90;;;;;;5051453;28;20363;-62
2023/04/01 09:24:49;;;;;;;25.05;5.70;;;14.10;99.90;;;;;;5051614;28;20500;-63
2023/04/01 09:27:33;;;;;;;26.20;6.47;;;14.10;99.90;;;;;;5051776;28;20053;-63
2023/04/01 09:30:29;;;;;;;21.90;5.72;;;14.20;99.90;;;;;;5052286;28;20028;-63
2023/04/01 09:33:01;;;;;;;27.23;6.10;;;14.30;99.90;;;;;;5052283;28;20104;-63
2023/04/01 09:36:03;;;;;;;22.33;5.63;;;14.10;99.90;;;;;;5051906;28;20057;-63
2023/04/01 09:38:42;;;;;;;32.53;6.90;;;14.00;99.90;;;;;;5029548;28;20494;-63
2023/04/01 09:41:22;;;;;;;28.25;6.05;;;14.20;99.90;;;;;;5029909;28;20033;-63
2023/04/01 09:44:15;;;;;;;28.83;6.32;;;14.20;99.90;;;;;;5029706;28;20445;-63
2023/04/01 09:46:59;;;;;;;25.45;6.35;;;14.40;99.90;;;;;;5030325;28;20524;-63
2023/04/01 09:49:30;;;;;;;30.58;7.22;;;14.40;99.90;;;;;;5033606;28;20521;-63
2023/04/01 09:52:17;;;;;;;28.15;6.43;;;14.10;99.90;;;;;;5033017;28;20407;-62
2023/04/01 09:55:02;;;;;;;30.77;6.90;;;14.00;99.90;;;;;;5033256;28;20029;-62
2023/04/01 09:57:48;;;;;;;31.35;7.40;;;14.00;99.90;;;;;;5033258;28;20053;-63
2023/04/01 10:00:35;;;;;;;28.58;6.80;;;14.10;99.90;;;;;;5033332;28;20406;-63
2023/04/01 10:03:28;;;;;;;30.17;6.82;;;14.20;99.90;;;;;;5033463;28;20040;-63
2023/04/01 10:06:09;;;;;;;29.88;7.50;;;14.20;99.90;;;;;;5032393;28;20048;-63
2023/04/01 10:09:26;;;;;;;32.45;7.35;;;14.10;99.90;;;;;;5033370;28;20034;-63
2023/04/01 10:12:24;;;;;;;29.70;6.95;;;14.00;99.90;;;;;;4974559;28;20047;-63
2023/04/01 10:15:11;;;;;;;26.00;6.15;;;13.90;99.90;;;;;;4951906;28;20043;-63
2023/04/01 10:18:14;;;;;;;29.67;6.75;;;13.80;99.90;;;;;;4954920;29;20035;-63
2023/04/01 10:20:52;;;;;;;31.38;6.63;;;13.30;99.90;;;;;;4954709;29;20479;-63
2023/04/01 10:23:32;;;;;;;32.10;6.57;;;13.30;99.90;;;;;;4954825;29;20050;-62
2023/04/01 10:26:13;;;;;;;31.65;6.65;;;13.30;99.90;;;;;;4954601;28;20042;-63
2023/04/01 10:29:00;;;;;;;33.33;7.32;;;13.50;99.90;;;;;;4954739;29;20039;-63
2023/04/01 10:31:44;;;;;;;31.15;7.72;;;13.90;99.90;;;;;;4954542;28;20038;-63
2023/04/01 10:34:39;;;;;;;30.42;7.22;;;14.30;99.90;;;;;;4954009;28;20074;-63
2023/04/01 10:37:28;;;;;;;28.55;7.20;;;14.50;99.90;;;;;;4954401;28;20138;-63
2023/04/01 10:40:12;;;;;;;28.63;6.47;;;14.60;99.90;;;;;;4954276;28;20047;-63
2023/04/01 10:43:02;;;;;;;28.77;7.40;;;14.60;99.90;;;;;;4954801;28;20110;-63
2023/04/01 10:45:51;;;;;;;32.97;6.63;;;14.60;99.90;;;;;;4954363;28;20047;-62
2023/04/01 10:48:34;;;;;;;28.42;6.78;;;14.80;99.90;;;;;;5031327;28;20038;-63
2023/04/01 10:51:33;;;;;;;29.30;7.03;;;14.70;99.90;;;;;;5034433;28;20037;-63
2023/04/01 10:54:04;;;;;;;31.05;7.03;;;14.90;99.90;;;;;;5012355;28;20624;-63
2023/04/01 10:56:50;;;;;;;30.10;7.10;;;15.00;99.90;;;;;;5012300;28;20030;-63
2023/04/01 10:59:32;;;;;;;28.15;7.03;;;15.20;99.90;;;;;;5011918;28;20108;-63
2023/04/01 11:02:19;;;;;;;31.48;7.03;;;15.30;99.90;;;;;;5012268;28;20065;-63
2023/04/01 11:05:22;;;;;;;30.83;7.35;;;15.10;99.90;;;;;;5017762;28;20426;-63
2023/04/01 11:08:16;;;;;;;32.63;7.18;;;14.90;99.90;;;;;;5031986;28;20399;-63
2023/04/01 11:11:11;;;;;;;29.80;7.28;;;14.40;99.90;;;;;;5031678;28;20069;-63
2023/04/01 11:14:07;;;;;;;35.00;8.00;;;14.30;99.90;;;;;;5032048;28;20478;-63
2023/04/01 11:17:05;;;;;;;30.30;7.45;;;14.20;99.90;;;;;;5031797;28;20049;-63
2023/04/01 11:19:49;;;;;;;29.92;6.68;;;14.30;99.90;;;;;;5031703;28;20569;-63
2023/04/01 11:22:24;;;;;;;27.90;7.28;;;14.90;99.90;;;;;;5031700;28;20037;-62
2023/04/01 11:24:55;;;;;;;26.50;5.88;;;14.40;99.90;;;;;;5031504;28;20026;-63
2023/04/01 11:27:41;;;;;;;25.25;5.63;;;12.80;99.90;;;;;;5031700;28;20079;-63
2023/04/01 11:30:32;;;;;;;16.90;3.80;;;12.50;99.90;;;;;;5032970;28;20409;-63
2023/04/01 11:33:02;;;;;;;13.98;3.50;;;12.20;99.90;;;;;;5033303;28;20475;-63
2023/04/01 11:35:55;;;;;;;20.88;4.82;;;12.20;99.90;;;;;;5033647;28;20025;-63
2023/04/01 11:38:49;;;;;;;20.30;5.15;;;11.90;99.90;;;;;;5033023;28;20156;-63
2023/04/01 11:41:36;;;;;;;22.55;5.28;;;11.70;99.90;;;;;;5032687;28;20030;-63
2023/04/01 11:44:10;;;;;;;21.35;5.10;;;11.60;99.90;;;;;;5044501;28;20029;-63
2023/04/01 11:46:55;;;;;;;16.90;4.85;;;11.70;99.90;;;;;;5054463;28;20033;-63
2023/04/01 11:49:41;;;;;;;17.90;3.90;;;11.60;99.90;;;;;;5072681;28;20362;-63
2023/04/01 11:52:30;;;;;;;16.35;3.28;;;11.70;99.90;;;;;;5072559;28;20104;-63
2023/04/01 11:55:23;;;;;;;20.40;4.40;;;12.00;99.90;;;;;;5067053;28;20032;-64
2023/04/01 11:58:07;;;;;;;24.85;4.72;;;12.40;99.90;;;;;;5072433;28;20043;-64
2023/04/01 12:01:06;;;;;;;26.02;5.35;;;12.80;99.90;;;;;;5072625;28;20044;-64
2023/04/01 12:03:59;;;;;;;24.92;5.10;;;12.60;99.90;;;;;;5072052;28;20040;-63
2023/04/01 12:06:33;;;;;;;23.93;5.57;;;12.70;99.90;;;;;;5032872;28;20072;-64
2023/04/01 12:09:04;;;;;;;26.58;5.38;;;12.60;99.90;;;;;;5032581;28;20030;-62
2023/04/01 12:11:46;;;;;;;20.60;4.65;;;12.40;99.90;;;;;;5052434;28;20032;-63
2023/04/01 12:14:22;;;;;;;20.90;4.97;;;12.50;99.90;;;;;;5052880;28;20444;-63
2023/04/01 12:16:51;;;;;;;22.52;4.75;;;13.10;99.90;;;;;;5052447;28;20036;-63
2023/04/01 12:19:26;;;;;;;25.10;5.13;;;13.30;99.90;;;;;;5052649;28;20025;-63
2023/04/01 12:22:12;;;;;;;20.63;4.65;;;13.30;99.90;;;;;;5052117;28;20579;-63
2023/04/01 12:24:59;;;;;;;21.13;4.82;;;13.40;99.90;;;;;;5052172;28;20041;-62
2023/04/01 12:27:55;;;;;;;19.63;4.93;;;13.80;99.90;;;;;;5052589;28;20465;-63
2023/04/01 12:30:47;;;;;;;23.75;4.75;;;13.90;99.90;;;;;;5050821;28;20383;-64
2023/04/01 12:33:38;;;;;;;13.88;4.25;;;14.30;99.90;;;;;;5051968;28;20029;-63
2023/04/01 12:36:10;;;;;;;14.77;3.63;;;14.60;99.90;;;;;;5052146;28;20445;-63
2023/04/01 12:38:54;;;;;;;19.80;4.22;;;14.60;99.90;;;;;;5051863;28;20417;-64
2023/04/01 12:41:23;;;;;;;;;;;14.40;99.90;;;;;;5052726;28;20035;-63
2023/04/01 12:44:24;;;;;;;21.45;4.78;;;14.40;99.90;;;;;;5051663;28;19908;-63
2023/04/01 12:47:24;;;;;;;21.88;4.85;;;14.20;99.90;;;;;;5051133;28;20048;-62
2023/04/01 12:50:11;;;;;;;22.85;5.05;;;14.00;99.90;;;;;;5051193;28;20028;-63
2023/04/01 12:52:56;;;;;;;21.50;5.63;;;14.00;99.90;;;;;;5051134;28;20474;-63
2023/04/01 12:55:41;;;;;;;23.63;5.28;;;14.00;99.90;;;;;;5051950;28;20465;-63
2023/04/01 12:58:35;;;;;;;28.00;5.47;;;13.90;99.90;;;;;;5052148;28;20025;-64
2023/04/01 13:01:10;;;;;;;23.38;5.72;;;13.70;99.90;;;;;;5051630;28;20029;-63
2023/04/01 13:04:18;;;;;;;24.27;5.43;;;13.70;99.90;;;;;;5051941;28;20107;-64
2023/04/01 13:07:02;;;;;;;19.40;4.93;;;13.70;99.90;;;;;;5028275;28;20053;-64
2023/04/01 13:09:52;;;;;;;23.10;5.43;;;14.20;99.90;;;;;;5034461;28;20397;-64
2023/04/01 13:12:35;;;;;;;19.08;4.97;;;14.70;99.90;;;;;;5051964;28;20056;-63
2023/04/01 13:15:10;;;;;;;21.13;5.53;;;14.80;99.90;;;;;;5051518;28;20071;-63
2023/04/01 13:17:49;;;;;;;19.20;4.95;;;15.00;99.90;;;;;;5051957;28;20268;-64
2023/04/01 13:20:39;;;;;;;26.63;5.00;;;14.90;99.90;;;;;;5051540;28;20381;-64